sensor_id;sensor_type;location;lat;lon;timestamp;temperature;humidity
8008;DHT22;4049;49.468;11.200;2023-04-01T00:01:58;8.20;99.90
8008;DHT22;4049;49.468;11.200;2023-04-01T00:04:24;8.20;99.90
8008;DHT22;4049;49.468;11.200;2023-04-01T00:06:51;8.20;99.90
8008;DHT22;4049;49.468;11.200;2023-04-01T00:09:18;8.20;99.90
8008;DHT22;4049;49.468;11.200;2023-04-01T00:11:45;8.20;99.90
8008;DHT22;4049;49.468;11.200;2023-04-01T00:14:12;8.20;99.90
8008;DHT22;4049;49.468;11.200;2023-04-01T00:16:39;8.20;99.90
8008;DHT22;4049;49.468;11.200;2023-04-01T00:19:10;8.20;99.90
8008;DHT22;4049;49.468;11.200;2023-04-01T00:21:36;8.30;99.90
8008;DHT22;4049;49.468;11.200;2023-04-01T00:24:03;8.30;99.90
8008;DHT22;4049;49.468;11.200;2023-04-01T00:26:31;8.30;99.90
8008;DHT22;4049;49.468;11.200;2023-04-01T00:28:58;8.40;99.90
8008;DHT22;4049;49.468;11.200;2023-04-01T00:31:26;8.40;99.90
8008;DHT22;4049;49.468;11.200;2023-04-01T00:33:53;8.40;99.90
8008;DHT22;4049;49.468;11.200;2023-04-01T00:36:21;8.40;99.90
8008;DHT22;4049;49.468;11.200;2023-04-01T00:38:49;8.50;99.90
8008;DHT22;4049;49.468;11.200;2023-04-01T00:41:19;8.50;99.90
8008;DHT22;4049;49.468;11.200;2023-04-01T00:43:48;8.50;99.90
8008;DHT22;4049;49.468;11.200;2023-04-01T00:46:16;8.60;99.90
8008;DHT22;4049;49.468;11.200;2023-04-01T00:48:45;8.60;99.90
8008;DHT22;4049;49.468;11.200;2023-04-01T00:51:15;8.60;99.90
8008;DHT22;4049;49.468;11.200;2023-04-01T00:53:46;8.60;99.90
8008;DHT22;4049;49.468;11.200;2023-04-01T00:56:16;8.60;99.90
8008;DHT22;4049;49.468;11.200;2023-04-01T00:58:47;8.60;99.90
8008;DHT22;4049;49.468;11.200;2023-04-01T01:01:15;8.60;99.90
8008;DHT22;4049;49.468;11.200;2023-04-01T01:03:42;8.70;99.90
8008;DHT22;4049;49.468;11.200;2023-04-01T01:06:21;8.70;99.90
8008;DHT22;4049;49.468;11.200;2023-04-01T01:11:47;8.70;99.90
8008;DHT22;4049;49.468;11.200;2023-04-01T01:14:25;8.70;99.90
8008;DHT22;4049;49.468;11.200;2023-04-01T01:16:58;8.70;99.90
8008;DHT22;4049;49.468;11.200;2023-04-01T01:19:46;8.70;99.90
8008;DHT22;4049;49.468;11.200;2023-04-01T01:22:33;8.70;99.90
8008;DHT22;4049;49.468;11.200;2023-04-01T01:25:25;8.70;99.90
8008;DHT22;4049;49.468;11.200;2023-04-01T01:28:04;8.70;99.90
8008;DHT22;4049;49.468;11.200;2023-04-01T01:30:44;8.70;99.90
8008;DHT22;4049;49.468;11.200;2023-04-01T01:33:33;8.70;99.90
8008;DHT22;4049;49.468;11.200;2023-04-01T01:36:04;8.70;99.90
8008;DHT22;4049;49.468;11.200;2023-04-01T01:38:34;8.70;99.90
8008;DHT22;4049;49.468;11.200;2023-04-01T01:41:03;8.70;99.90
8008;DHT22;4049;49.468;11.200;2023-04-01T01:43:33;8.70;99.90
8008;DHT22;4049;49.468;11.200;2023-04-01T01:46:06;8.70;99.90
8008;DHT22;4049;49.468;11.200;2023-04-01T01:48:35;8.70;99.90
8008;DHT22;4049;49.468;11.200;2023-04-01T01:51:04;8.70;99.90
8008;DHT22;4049;49.468;11.200;2023-04-01T01:53:31;8.70;99.90
8008;DHT22;4049;49.468;11.200;2023-04-01T01:55:58;8.70;99.90
8008;DHT22;4049;49.468;11.200;2023-04-01T01:58:28;8.70;99.90
8008;DHT22;4049;49.468;11.200;2023-04-01T02:00:59;8.70;99.90
8008;DHT22;4049;49.468;11.200;2023-04-01T02:03:30;8.70;99.90
8008;DHT22;4049;49.468;11.200;2023-04-01T02:05:59;8.70;99.90
8008;DHT22;4049;49.468;11.200;2023-04-01T02:08:31;8.70;99.90
8008;DHT22;4049;49.468;11.200;2023-04-01T02:11:02;8.70;99.90
8008;DHT22;4049;49.468;11.200;2023-04-01T02:13:33;8.70;99.90
8008;DHT22;4049;49.468;11.200;2023-04-01T02:16:06;8.60;99.90
8008;DHT22;4049;49.468;11.200;2023-04-01T02:18:35;8.70;99.90
8008;DHT22;4049;49.468;11.200;2023-04-01T02:21:04;8.70;99.90
8008;DHT22;4049;49.468;11.200;2023-04-01T02:23:35;8.70;99.90
8008;DHT22;4049;49.468;11.200;2023-04-01T02:26:04;8.70;99.90
8008;DHT22;4049;49.468;11.200;2023-04-01T02:28:32;8.70;99.90
8008;DHT22;4049;49.468;11.200;2023-04-01T02:31:01;8.70;99.90
8008;DHT22;4049;49.468;11.200;2023-04-01T02:33:29;8.70;99.90
8008;DHT22;4049;49.468;11.200;2023-04-01T02:35:59;8.60;99.90
8008;DHT22;4049;49.468;11.200;2023-04-01T02:38:26;8.70;99.90
8008;DHT22;4049;49.468;11.200;2023-04-01T02:40:59;8.70;99.90
8008;DHT22;4049;49.468;11.200;2023-04-01T02:43:26;8.70;99.90
8008;DHT22;4049;49.468;11.200;2023-04-01T02:45:53;8.70;99.90
8008;DHT22;4049;49.468;11.200;2023-04-01T02:48:20;8.70;99.90
8008;DHT22;4049;49.468;11.200;2023-04-01T02:50:47;8.70;99.90
8008;DHT22;4049;49.468;11.200;2023-04-01T02:53:15;8.60;99.90
8008;DHT22;4049;49.468;11.200;2023-04-01T02:55:42;8.60;99.90
8008;DHT22;4049;49.468;11.200;2023-04-01T02:58:11;8.70;99.90
8008;DHT22;4049;49.468;11.200;2023-04-01T03:00:38;8.60;99.90
8008;DHT22;4049;49.468;11.200;2023-04-01T03:03:05;8.60;99.90
8008;DHT22;4049;49.468;11.200;2023-04-01T03:05:32;8.70;99.90
8008;DHT22;4049;49.468;11.200;2023-04-01T03:07:59;8.60;99.90
8008;DHT22;4049;49.468;11.200;2023-04-01T03:10:26;8.60;99.90
8008;DHT22;4049;49.468;11.200;2023-04-01T03:12:53;8.60;99.90
8008;DHT22;4049;49.468;11.200;2023-04-01T03:15:21;8.70;99.90
8008;DHT22;4049;49.468;11.200;2023-04-01T03:17:48;8.60;99.90
8008;DHT22;4049;49.468;11.200;2023-04-01T03:20:15;8.70;99.90
8008;DHT22;4049;49.468;11.200;2023-04-01T03:22:44;8.70;99.90
8008;DHT22;4049;49.468;11.200;2023-04-01T03:25:11;8.70;99.90
8008;DHT22;4049;49.468;11.200;2023-04-01T03:27:38;8.70;99.90
8008;DHT22;4049;49.468;11.200;2023-04-01T03:30:06;8.70;99.90
8008;DHT22;4049;49.468;11.200;2023-04-01T03:32:35;8.60;99.90
8008;DHT22;4049;49.468;11.200;2023-04-01T03:35:02;8.60;99.90
8008;DHT22;4049;49.468;11.200;2023-04-01T03:37:29;8.70;99.90
8008;DHT22;4049;49.468;11.200;2023-04-01T03:39:56;8.70;99.90
8008;DHT22;4049;49.468;11.200;2023-04-01T03:42:23;8.60;99.90
8008;DHT22;4049;49.468;11.200;2023-04-01T03:44:49;8.70;99.90
8008;DHT22;4049;49.468;11.200;2023-04-01T03:47:16;8.60;99.90
8008;DHT22;4049;49.468;11.200;2023-04-01T03:49:44;8.60;99.90
8008;DHT22;4049;49.468;11.200;2023-04-01T03:52:11;8.60;99.90
8008;DHT22;4049;49.468;11.200;2023-04-01T03:54:38;8.60;99.90
8008;DHT22;4049;49.468;11.200;2023-04-01T03:57:05;8.60;99.90
8008;DHT22;4049;49.468;11.200;2023-04-01T03:59:32;8.60;99.90
8008;DHT22;4049;49.468;11.200;2023-04-01T04:02:02;8.60;99.90
8008;DHT22;4049;49.468;11.200;2023-04-01T04:04:29;8.50;99.90
8008;DHT22;4049;49.468;11.200;2023-04-01T04:06:58;8.60;99.90
8008;DHT22;4049;49.468;11.200;2023-04-01T04:09:25;8.60;99.90
8008;DHT22;4049;49.468;11.200;2023-04-01T04:11:51;8.60;99.90
8008;DHT22;4049;49.468;11.200;2023-04-01T04:14:18;8.60;99.90
8008;DHT22;4049;49.468;11.200;2023-04-01T04:16:45;8.60;99.90
8008;DHT22;4049;49.468;11.200;2023-04-01T04:19:12;8.60;99.90
8008;DHT22;4049;49.468;11.200;2023-04-01T04:21:39;8.60;99.90
8008;DHT22;4049;49.468;11.200;2023-04-01T04:24:08;8.60;99.90
8008;DHT22;4049;49.468;11.200;2023-04-01T04:26:36;8.60;99.90
8008;DHT22;4049;49.468;11.200;2023-04-01T04:29:03;8.60;99.90
8008;DHT22;4049;49.468;11.200;2023-04-01T04:31:29;8.60;99.90
8008;DHT22;4049;49.468;11.200;2023-04-01T04:33:58;8.60;99.90
8008;DHT22;4049;49.468;11.200;2023-04-01T04:36:25;8.60;99.90
8008;DHT22;4049;49.468;11.200;2023-04-01T04:38:52;8.60;99.90
8008;DHT22;4049;49.468;11.200;2023-04-01T04:41:20;8.60;99.90
8008;DHT22;4049;49.468;11.200;2023-04-01T04:43:52;8.60;99.90
8008;DHT22;4049;49.468;11.200;2023-04-01T04:46:20;8.50;99.90
8008;DHT22;4049;49.468;11.200;2023-04-01T04:48:47;8.60;99.90
8008;DHT22;4049;49.468;11.200;2023-04-01T04:51:14;8.60;99.90
8008;DHT22;4049;49.468;11.200;2023-04-01T04:53:42;8.50;99.90
8008;DHT22;4049;49.468;11.200;2023-04-01T04:56:09;8.60;99.90
8008;DHT22;4049;49.468;11.200;2023-04-01T04:58:37;8.60;99.90
8008;DHT22;4049;49.468;11.200;2023-04-01T05:01:09;8.50;99.90
8008;DHT22;4049;49.468;11.200;2023-04-01T05:03:36;8.50;99.90
8008;DHT22;4049;49.468;11.200;2023-04-01T05:06:04;8.50;99.90
8008;DHT22;4049;49.468;11.200;2023-04-01T05:08:32;8.50;99.90
8008;DHT22;4049;49.468;11.200;2023-04-01T05:10:59;8.50;99.90
8008;DHT22;4049;49.468;11.200;2023-04-01T05:13:27;8.50;99.90
8008;DHT22;4049;49.468;11.200;2023-04-01T05:15:55;8.40;99.90
8008;DHT22;4049;49.468;11.200;2023-04-01T05:18:22;8.50;99.90
8008;DHT22;4049;49.468;11.200;2023-04-01T05:20:50;8.40;99.90
8008;DHT22;4049;49.468;11.200;2023-04-01T05:23:18;8.40;99.90
8008;DHT22;4049;49.468;11.200;2023-04-01T05:25:46;8.40;99.90
8008;DHT22;4049;49.468;11.200;2023-04-01T05:28:14;8.40;99.90
8008;DHT22;4049;49.468;11.200;2023-04-01T05:30:41;8.40;99.90
8008;DHT22;4049;49.468;11.200;2023-04-01T05:33:10;8.40;99.90
8008;DHT22;4049;49.468;11.200;2023-04-01T05:35:37;8.40;99.90
8008;DHT22;4049;49.468;11.200;2023-04-01T05:38:04;8.40;99.90
8008;DHT22;4049;49.468;11.200;2023-04-01T05:40:31;8.40;99.90
8008;DHT22;4049;49.468;11.200;2023-04-01T05:42:58;8.40;99.90
8008;DHT22;4049;49.468;11.200;2023-04-01T05:45:25;8.40;99.90
8008;DHT22;4049;49.468;11.200;2023-04-01T05:47:52;8.50;99.90
8008;DHT22;4049;49.468;11.200;2023-04-01T05:50:21;8.50;99.90
8008;DHT22;4049;49.468;11.200;2023-04-01T05:52:47;8.50;99.90
8008;DHT22;4049;49.468;11.200;2023-04-01T05:55:14;8.50;99.90
8008;DHT22;4049;49.468;11.200;2023-04-01T05:57:41;8.50;99.90
8008;DHT22;4049;49.468;11.200;2023-04-01T06:00:09;8.50;99.90
8008;DHT22;4049;49.468;11.200;2023-04-01T06:02:36;8.50;99.90
8008;DHT22;4049;49.468;11.200;2023-04-01T06:05:14;8.50;99.90
8008;DHT22;4049;49.468;11.200;2023-04-01T06:07:42;8.60;99.90
8008;DHT22;4049;49.468;11.200;2023-04-01T06:10:12;8.60;99.90
8008;DHT22;4049;49.468;11.200;2023-04-01T06:12:49;8.60;99.90
8008;DHT22;4049;49.468;11.200;2023-04-01T06:15:23;8.60;99.90
8008;DHT22;4049;49.468;11.200;2023-04-01T06:18:03;8.60;99.90
8008;DHT22;4049;49.468;11.200;2023-04-01T06:20:40;8.70;99.90
8008;DHT22;4049;49.468;11.200;2023-04-01T06:23:23;8.70;99.90
8008;DHT22;4049;49.468;11.200;2023-04-01T06:26:11;8.70;99.90
8008;DHT22;4049;49.468;11.200;2023-04-01T06:32:01;8.80;99.90
8008;DHT22;4049;49.468;11.200;2023-04-01T06:34:45;8.80;99.90
8008;DHT22;4049;49.468;11.200;2023-04-01T06:37:42;8.80;99.90
8008;DHT22;4049;49.468;11.200;2023-04-01T06:40:46;8.80;99.90
8008;DHT22;4049;49.468;11.200;2023-04-01T06:43:22;8.90;99.90
8008;DHT22;4049;49.468;11.200;2023-04-01T06:45:57;8.90;99.90
8008;DHT22;4049;49.468;11.200;2023-04-01T06:48:45;8.90;99.90
8008;DHT22;4049;49.468;11.200;2023-04-01T06:51:25;9.00;99.90
8008;DHT22;4049;49.468;11.200;2023-04-01T06:53:56;9.00;99.90
8008;DHT22;4049;49.468;11.200;2023-04-01T06:56:28;9.10;99.90
8008;DHT22;4049;49.468;11.200;2023-04-01T06:58:58;9.10;99.90
8008;DHT22;4049;49.468;11.200;2023-04-01T07:01:32;9.20;99.90
8008;DHT22;4049;49.468;11.200;2023-04-01T07:04:03;9.20;99.90
8008;DHT22;4049;49.468;11.200;2023-04-01T07:06:35;9.20;99.90
8008;DHT22;4049;49.468;11.200;2023-04-01T07:09:05;9.30;99.90
8008;DHT22;4049;49.468;11.200;2023-04-01T07:11:37;9.30;99.90
8008;DHT22;4049;49.468;11.200;2023-04-01T07:14:12;9.40;99.90
8008;DHT22;4049;49.468;11.200;2023-04-01T07:16:44;9.40;99.90
8008;DHT22;4049;49.468;11.200;2023-04-01T07:19:18;9.40;99.90
8008;DHT22;4049;49.468;11.200;2023-04-01T07:21:51;9.40;99.90
8008;DHT22;4049;49.468;11.200;2023-04-01T07:24:23;9.50;99.90
8008;DHT22;4049;49.468;11.200;2023-04-01T07:26:55;9.50;99.90
8008;DHT22;4049;49.468;11.200;2023-04-01T07:29:22;9.50;99.90
8008;DHT22;4049;49.468;11.200;2023-04-01T07:32:06;9.60;99.90
8008;DHT22;4049;49.468;11.200;2023-04-01T07:34:37;9.70;99.90
8008;DHT22;4049;49.468;11.200;2023-04-01T07:37:12;9.70;99.90
8008;DHT22;4049;49.468;11.200;2023-04-01T07:39:45;9.70;99.90
8008;DHT22;4049;49.468;11.200;2023-04-01T07:42:26;9.70;99.90
8008;DHT22;4049;49.468;11.200;2023-04-01T07:45:05;9.80;99.90
8008;DHT22;4049;49.468;11.200;2023-04-01T07:47:48;9.90;99.90
8008;DHT22;4049;49.468;11.200;2023-04-01T07:50:26;9.90;99.90
8008;DHT22;4049;49.468;11.200;2023-04-01T07:53:00;10.00;99.90
8008;DHT22;4049;49.468;11.200;2023-04-01T07:55:33;10.00;99.90
8008;DHT22;4049;49.468;11.200;2023-04-01T07:58:09;10.00;99.90
8008;DHT22;4049;49.468;11.200;2023-04-01T08:00:42;10.00;99.90
8008;DHT22;4049;49.468;11.200;2023-04-01T08:03:35;10.00;99.90
8008;DHT22;4049;49.468;11.200;2023-04-01T08:06:10;10.00;99.90
8008;DHT22;4049;49.468;11.200;2023-04-01T08:08:48;10.10;99.90
8008;DHT22;4049;49.468;11.200;2023-04-01T08:11:25;10.10;99.90
8008;DHT22;4049;49.468;11.200;2023-04-01T08:14:04;10.20;99.90
8008;DHT22;4049;49.468;11.200;2023-04-01T08:16:35;10.20;99.90
8008;DHT22;4049;49.468;11.200;2023-04-01T08:19:13;10.20;99.90
8008;DHT22;4049;49.468;11.200;2023-04-01T08:21:45;10.20;99.90
8008;DHT22;4049;49.468;11.200;2023-04-01T08:24:19;10.20;99.90
8008;DHT22;4049;49.468;11.200;2023-04-01T08:26:52;10.20;99.90
8008;DHT22;4049;49.468;11.200;2023-04-01T08:29:23;10.20;99.90
8008;DHT22;4049;49.468;11.200;2023-04-01T08:31:56;10.20;99.90
8008;DHT22;4049;49.468;11.200;2023-04-01T08:34:27;10.20;99.90
8008;DHT22;4049;49.468;11.200;2023-04-01T08:37:01;10.20;99.90
8008;DHT22;4049;49.468;11.200;2023-04-01T08:39:31;10.10;99.90
8008;DHT22;4049;49.468;11.200;2023-04-01T08:42:14;10.20;99.90
8008;DHT22;4049;49.468;11.200;2023-04-01T08:45:09;10.20;99.90
8008;DHT22;4049;49.468;11.200;2023-04-01T08:47:46;10.20;99.90
8008;DHT22;4049;49.468;11.200;2023-04-01T08:53:21;10.20;99.90
8008;DHT22;4049;49.468;11.200;2023-04-01T08:56:03;10.20;99.90
8008;DHT22;4049;49.468;11.200;2023-04-01T08:58:52;10.20;99.90
8008;DHT22;4049;49.468;11.200;2023-04-01T09:04:38;10.20;99.90
8008;DHT22;4049;49.468;11.200;2023-04-01T09:07:16;10.20;99.90
8008;DHT22;4049;49.468;11.200;2023-04-01T09:12:59;10.10;99.90
8008;DHT22;4049;49.468;11.200;2023-04-01T09:15:57;10.20;99.90
8008;DHT22;4049;49.468;11.200;2023-04-01T09:21:28;10.20;99.90
8008;DHT22;4049;49.468;11.200;2023-04-01T09:24:19;10.20;99.90
8008;DHT22;4049;49.468;11.200;2023-04-01T09:27:00;10.20;99.90
8008;DHT22;4049;49.468;11.200;2023-04-01T09:35:28;10.20;99.90
8008;DHT22;4049;49.468;11.200;2023-04-01T09:38:18;10.30;99.90
8008;DHT22;4049;49.468;11.200;2023-04-01T09:40:58;10.30;99.90
8008;DHT22;4049;49.468;11.200;2023-04-01T09:43:33;10.30;99.90
8008;DHT22;4049;49.468;11.200;2023-04-01T09:46:16;10.30;99.90
8008;DHT22;4049;49.468;11.200;2023-04-01T09:51:51;10.30;99.90
8008;DHT22;4049;49.468;11.200;2023-04-01T09:54:34;10.30;99.90
8008;DHT22;4049;49.468;11.200;2023-04-01T10:00:36;10.30;99.90
8008;DHT22;4049;49.468;11.200;2023-04-01T10:03:31;10.30;99.90
8008;DHT22;4049;49.468;11.200;2023-04-01T10:12:34;10.10;99.90
8008;DHT22;4049;49.468;11.200;2023-04-01T10:18:37;10.10;99.90
8008;DHT22;4049;49.468;11.200;2023-04-01T10:21:39;10.10;99.90
8008;DHT22;4049;49.468;11.200;2023-04-01T10:24:33;10.10;99.90
8008;DHT22;4049;49.468;11.200;2023-04-01T10:30:34;9.90;99.90
8008;DHT22;4049;49.468;11.200;2023-04-01T10:33:38;9.90;99.90
8008;DHT22;4049;49.468;11.200;2023-04-01T10:36:34;9.80;99.90
8008;DHT22;4049;49.468;11.200;2023-04-01T10:48:23;10.00;99.90
8008;DHT22;4049;49.468;11.200;2023-04-01T10:51:04;10.00;99.90
8008;DHT22;4049;49.468;11.200;2023-04-01T10:54:08;10.00;99.90
8008;DHT22;4049;49.468;11.200;2023-04-01T10:56:55;10.10;99.90
8008;DHT22;4049;49.468;11.200;2023-04-01T10:59:56;10.00;99.90
8008;DHT22;4049;49.468;11.200;2023-04-01T11:02:57;9.90;99.90
8008;DHT22;4049;49.468;11.200;2023-04-01T11:06:04;9.80;99.90
8008;DHT22;4049;49.468;11.200;2023-04-01T11:12:10;9.80;99.90
8008;DHT22;4049;49.468;11.200;2023-04-01T11:21:03;9.80;99.90
8008;DHT22;4049;49.468;11.200;2023-04-01T11:23:54;9.80;99.90
8008;DHT22;4049;49.468;11.200;2023-04-01T11:26:33;9.70;99.90
8008;DHT22;4049;49.468;11.200;2023-04-01T11:29:22;9.70;99.90
8008;DHT22;4049;49.468;11.200;2023-04-01T11:31:58;9.80;99.90
8008;DHT22;4049;49.468;11.200;2023-04-01T11:34:50;9.70;99.90
8008;DHT22;4049;49.468;11.200;2023-04-01T11:37:28;9.70;99.90
8008;DHT22;4049;49.468;11.200;2023-04-01T11:40:05;9.70;99.90
8008;DHT22;4049;49.468;11.200;2023-04-01T11:42:40;9.60;99.90
8008;DHT22;4049;49.468;11.200;2023-04-01T11:45:19;9.60;99.90
8008;DHT22;4049;49.468;11.200;2023-04-01T11:47:58;9.60;99.90
8008;DHT22;4049;49.468;11.200;2023-04-01T11:50:35;9.50;99.90
8008;DHT22;4049;49.468;11.200;2023-04-01T11:53:36;9.50;99.90
8008;DHT22;4049;49.468;11.200;2023-04-01T11:56:18;9.50;99.90
8008;DHT22;4049;49.468;11.200;2023-04-01T12:01:50;9.50;99.90
8008;DHT22;4049;49.468;11.200;2023-04-01T12:07:50;9.50;99.90
8008;DHT22;4049;49.468;11.200;2023-04-01T12:10:26;9.50;99.90
8008;DHT22;4049;49.468;11.200;2023-04-01T12:13:02;9.50;99.90
8008;DHT22;4049;49.468;11.200;2023-04-01T12:15:38;9.50;99.90
8008;DHT22;4049;49.468;11.200;2023-04-01T12:18:17;9.50;99.90
8008;DHT22;4049;49.468;11.200;2023-04-01T12:20:50;9.60;99.90
8008;DHT22;4049;49.468;11.200;2023-04-01T12:23:32;9.60;99.90
8008;DHT22;4049;49.468;11.200;2023-04-01T12:26:28;9.60;99.90
8008;DHT22;4049;49.468;11.200;2023-04-01T12:29:08;9.60;99.90
8008;DHT22;4049;49.468;11.200;2023-04-01T12:31:50;9.60;99.90
8008;DHT22;4049;49.468;11.200;2023-04-01T12:34:41;9.60;99.90
8008;DHT22;4049;49.468;11.200;2023-04-01T12:37:16;9.60;99.90
8008;DHT22;4049;49.468;11.200;2023-04-01T12:39:59;9.60;99.90
8008;DHT22;4049;49.468;11.200;2023-04-01T12:42:44;9.60;99.90
8008;DHT22;4049;49.468;11.200;2023-04-01T12:45:30;9.50;99.90
8008;DHT22;4049;49.468;11.200;2023-04-01T12:48:26;9.50;99.90
8008;DHT22;4049;49.468;11.200;2023-04-01T12:51:09;9.50;99.90
8008;DHT22;4049;49.468;11.200;2023-04-01T12:56:41;9.50;99.90
8008;DHT22;4049;49.468;11.200;2023-04-01T12:59:33;9.50;99.90
8008;DHT22;4049;49.468;11.200;2023-04-01T13:02:17;9.50;99.90
8008;DHT22;4049;49.468;11.200;2023-04-01T13:05:15;9.50;99.90
8008;DHT22;4049;49.468;11.200;2023-04-01T13:08:00;9.60;99.90
8008;DHT22;4049;49.468;11.200;2023-04-01T13:10:38;9.60;99.90
8008;DHT22;4049;49.468;11.200;2023-04-01T13:16:11;9.50;99.90
8008;DHT22;4049;49.468;11.200;2023-04-01T13:18:52;9.60;99.90
8008;DHT22;4049;49.468;11.200;2023-04-01T13:21:28;9.60;99.90
8008;DHT22;4049;49.468;11.200;2023-04-01T13:24:03;9.60;99.90
8008;DHT22;4049;49.468;11.200;2023-04-01T13:26:37;9.60;99.90
8008;DHT22;4049;49.468;11.200;2023-04-01T13:29:11;9.60;99.90
8008;DHT22;4049;49.468;11.200;2023-04-01T13:31:52;9.60;99.90
8008;DHT22;4049;49.468;11.200;2023-04-01T13:34:32;9.60;99.90
8008;DHT22;4049;49.468;11.200;2023-04-01T13:37:09;9.60;99.90
8008;DHT22;4049;49.468;11.200;2023-04-01T13:40:10;9.60;99.90
8008;DHT22;4049;49.468;11.200;2023-04-01T13:42:43;9.60;99.90
8008;DHT22;4049;49.468;11.200;2023-04-01T13:45:14;9.60;99.90
8008;DHT22;4049;49.468;11.200;2023-04-01T13:53:56;9.60;99.90
8008;DHT22;4049;49.468;11.200;2023-04-01T13:56:34;9.70;99.90
8008;DHT22;4049;49.468;11.200;2023-04-01T14:02:36;9.60;99.90
8008;DHT22;4049;49.468;11.200;2023-04-01T14:05:21;9.60;99.90
8008;DHT22;4049;49.468;11.200;2023-04-01T14:08:00;9.60;99.90
8008;DHT22;4049;49.468;11.200;2023-04-01T14:10:36;9.60;99.90
8008;DHT22;4049;49.468;11.200;2023-04-01T14:13:12;9.50;99.90
8008;DHT22;4049;49.468;11.200;2023-04-01T14:15:52;9.50;99.90
8008;DHT22;4049;49.468;11.200;2023-04-01T14:18:37;9.50;99.90
8008;DHT22;4049;49.468;11.200;2023-04-01T14:21:23;9.50;99.90
8008;DHT22;4049;49.468;11.200;2023-04-01T14:30:19;9.40;99.90
8008;DHT22;4049;49.468;11.200;2023-04-01T14:33:00;9.40;99.90
8008;DHT22;4049;49.468;11.200;2023-04-01T14:35:37;9.50;99.90
8008;DHT22;4049;49.468;11.200;2023-04-01T14:38:23;9.50;99.90
8008;DHT22;4049;49.468;11.200;2023-04-01T14:41:12;9.40;99.90
8008;DHT22;4049;49.468;11.200;2023-04-01T14:44:05;9.40;99.90
8008;DHT22;4049;49.468;11.200;2023-04-01T14:47:11;9.40;99.90
8008;DHT22;4049;49.468;11.200;2023-04-01T14:49:44;9.40;99.90
8008;DHT22;4049;49.468;11.200;2023-04-01T14:52:16;9.40;99.90
8008;DHT22;4049;49.468;11.200;2023-04-01T14:54:46;9.40;99.90
8008;DHT22;4049;49.468;11.200;2023-04-01T14:57:15;9.40;99.90
8008;DHT22;4049;49.468;11.200;2023-04-01T14:59:49;9.40;99.90
8008;DHT22;4049;49.468;11.200;2023-04-01T15:02:37;9.40;99.90
8008;DHT22;4049;49.468;11.200;2023-04-01T15:05:24;9.40;99.90
8008;DHT22;4049;49.468;11.200;2023-04-01T15:08:15;9.30;99.90
8008;DHT22;4049;49.468;11.200;2023-04-01T15:11:14;9.30;99.90
8008;DHT22;4049;49.468;11.200;2023-04-01T15:13:58;9.30;99.90
8008;DHT22;4049;49.468;11.200;2023-04-01T15:16:34;9.20;99.90
8008;DHT22;4049;49.468;11.200;2023-04-01T15:19:15;9.20;99.90
8008;DHT22;4049;49.468;11.200;2023-04-01T15:24:48;9.20;99.90
8008;DHT22;4049;49.468;11.200;2023-04-01T15:27:30;9.20;99.90
8008;DHT22;4049;49.468;11.200;2023-04-01T15:30:38;9.20;99.90
8008;DHT22;4049;49.468;11.200;2023-04-01T15:33:29;9.20;99.90
8008;DHT22;4049;49.468;11.200;2023-04-01T15:36:05;9.20;99.90
8008;DHT22;4049;49.468;11.200;2023-04-01T15:38:39;9.20;99.90
8008;DHT22;4049;49.468;11.200;2023-04-01T15:41:14;9.30;99.90
8008;DHT22;4049;49.468;11.200;2023-04-01T15:43:45;9.30;99.90
8008;DHT22;4049;49.468;11.200;2023-04-01T15:49:19;9.30;99.90
8008;DHT22;4049;49.468;11.200;2023-04-01T15:51:58;9.30;99.90
8008;DHT22;4049;49.468;11.200;2023-04-01T15:54:37;9.30;99.90
8008;DHT22;4049;49.468;11.200;2023-04-01T15:57:14;9.30;99.90
8008;DHT22;4049;49.468;11.200;2023-04-01T15:59:58;9.30;99.90
8008;DHT22;4049;49.468;11.200;2023-04-01T16:02:31;9.30;99.90
8008;DHT22;4049;49.468;11.200;2023-04-01T16:05:06;9.30;99.90
8008;DHT22;4049;49.468;11.200;2023-04-01T16:07:55;9.30;99.90
8008;DHT22;4049;49.468;11.200;2023-04-01T16:10:44;9.30;99.90
8008;DHT22;4049;49.468;11.200;2023-04-01T16:13:28;9.20;99.90
8008;DHT22;4049;49.468;11.200;2023-04-01T16:16:04;9.20;99.90
8008;DHT22;4049;49.468;11.200;2023-04-01T16:18:46;9.20;99.90
8008;DHT22;4049;49.468;11.200;2023-04-01T16:21:28;9.20;99.90
8008;DHT22;4049;49.468;11.200;2023-04-01T16:24:08;9.20;99.90
8008;DHT22;4049;49.468;11.200;2023-04-01T16:26:40;9.20;99.90
8008;DHT22;4049;49.468;11.200;2023-04-01T16:29:16;9.20;99.90
8008;DHT22;4049;49.468;11.200;2023-04-01T16:31:50;9.20;99.90
8008;DHT22;4049;49.468;11.200;2023-04-01T16:34:24;9.20;99.90
8008;DHT22;4049;49.468;11.200;2023-04-01T16:36:55;9.20;99.90
8008;DHT22;4049;49.468;11.200;2023-04-01T16:39:30;9.20;99.90
8008;DHT22;4049;49.468;11.200;2023-04-01T16:42:24;9.20;99.90
8008;DHT22;4049;49.468;11.200;2023-04-01T16:44:57;9.10;99.90
8008;DHT22;4049;49.468;11.200;2023-04-01T16:47:30;9.10;99.90
8008;DHT22;4049;49.468;11.200;2023-04-01T16:50:05;9.10;99.90
8008;DHT22;4049;49.468;11.200;2023-04-01T16:52:43;9.10;99.90
8008;DHT22;4049;49.468;11.200;2023-04-01T16:55:17;9.10;99.90
8008;DHT22;4049;49.468;11.200;2023-04-01T16:57:50;9.10;99.90
8008;DHT22;4049;49.468;11.200;2023-04-01T17:00:25;9.10;99.90
8008;DHT22;4049;49.468;11.200;2023-04-01T17:03:02;9.10;99.90
8008;DHT22;4049;49.468;11.200;2023-04-01T17:05:41;9.10;99.90
8008;DHT22;4049;49.468;11.200;2023-04-01T17:08:17;9.10;99.90
8008;DHT22;4049;49.468;11.200;2023-04-01T17:10:51;9.10;99.90
8008;DHT22;4049;49.468;11.200;2023-04-01T17:13:40;9.00;99.90
8008;DHT22;4049;49.468;11.200;2023-04-01T17:16:28;9.10;99.90
8008;DHT22;4049;49.468;11.200;2023-04-01T17:19:05;9.10;99.90
8008;DHT22;4049;49.468;11.200;2023-04-01T17:21:47;9.00;99.90
8008;DHT22;4049;49.468;11.200;2023-04-01T17:24:28;9.00;99.90
8008;DHT22;4049;49.468;11.200;2023-04-01T17:27:04;9.00;99.90
8008;DHT22;4049;49.468;11.200;2023-04-01T17:29:46;9.00;99.90
8008;DHT22;4049;49.468;11.200;2023-04-01T17:32:31;9.00;99.90
8008;DHT22;4049;49.468;11.200;2023-04-01T17:35:06;8.90;99.90
8008;DHT22;4049;49.468;11.200;2023-04-01T17:37:44;8.90;99.90
8008;DHT22;4049;49.468;11.200;2023-04-01T17:40:21;8.90;99.90
8008;DHT22;4049;49.468;11.200;2023-04-01T17:42:56;8.90;99.90
8008;DHT22;4049;49.468;11.200;2023-04-01T17:45:31;8.90;99.90
8008;DHT22;4049;49.468;11.200;2023-04-01T17:48:11;8.90;99.90
8008;DHT22;4049;49.468;11.200;2023-04-01T17:50:53;8.90;99.90
8008;DHT22;4049;49.468;11.200;2023-04-01T17:53:30;8.90;99.90
8008;DHT22;4049;49.468;11.200;2023-04-01T17:56:07;8.90;99.90
8008;DHT22;4049;49.468;11.200;2023-04-01T17:58:44;8.90;99.90
8008;DHT22;4049;49.468;11.200;2023-04-01T18:01:20;8.90;99.90
8008;DHT22;4049;49.468;11.200;2023-04-01T18:04:17;8.90;99.90
8008;DHT22;4049;49.468;11.200;2023-04-01T18:07:08;8.90;99.90
8008;DHT22;4049;49.468;11.200;2023-04-01T18:09:49;8.90;99.90
8008;DHT22;4049;49.468;11.200;2023-04-01T18:12:28;8.90;99.90
8008;DHT22;4049;49.468;11.200;2023-04-01T18:15:08;8.90;99.90
8008;DHT22;4049;49.468;11.200;2023-04-01T18:17:45;8.90;99.90
8008;DHT22;4049;49.468;11.200;2023-04-01T18:20:25;8.90;99.90
8008;DHT22;4049;49.468;11.200;2023-04-01T18:23:00;8.90;99.90
8008;DHT22;4049;49.468;11.200;2023-04-01T18:25:33;8.90;99.90
8008;DHT22;4049;49.468;11.200;2023-04-01T18:28:17;8.90;99.90
8008;DHT22;4049;49.468;11.200;2023-04-01T18:30:51;8.90;99.90
8008;DHT22;4049;49.468;11.200;2023-04-01T18:33:23;8.90;99.90